Time,TemperatureF,DewpointF,PressureIn,WindDirection,WindDirectionDegrees,WindSpeedMPH,WindSpeedGustMPH,Humidity,HourlyPrecipIn,Conditions,Clouds,dailyrainin,SoftwareType,DateUTC
2013-05-10 00:05:00,64.8,53.0,-100.00,West,265,0.0,0.0,66,0.00,,,0.00,,2013-05-10 05:05:00,
2013-05-10 00:09:00,64.7,53.0,-100.00,West,265,0.0,0.0,68,0.00,,,0.00,,2013-05-10 05:09:00,
2013-05-10 00:15:00,64.8,53.0,-100.00,West,265,0.0,0.0,66,0.00,,,0.00,,2013-05-10 05:15:00,
2013-05-10 00:19:00,64.5,53.0,-100.00,West,265,0.0,0.0,68,0.00,,,0.00,,2013-05-10 05:19:00,
2013-05-10 00:25:00,64.5,53.0,-100.00,West,265,0.0,0.0,68,0.00,,,0.00,,2013-05-10 05:25:00,
2013-05-10 00:29:00,64.3,54.0,-100.00,West,265,0.0,0.0,70,0.00,,,0.00,,2013-05-10 05:29:00,
2013-05-10 00:34:00,62.9,53.0,-100.00,West,265,0.0,0.0,72,0.00,,,0.00,,2013-05-10 05:34:00,
2013-05-10 00:40:00,62.7,54.0,-100.00,West,265,0.0,0.0,74,0.00,,,0.00,,2013-05-10 05:40:00,
2013-05-10 00:44:00,62.5,54.0,-100.00,West,265,0.0,0.0,75,0.00,,,0.00,,2013-05-10 05:44:00,
2013-05-10 00:49:00,62.6,54.0,-100.00,West,265,0.0,0.0,75,0.00,,,0.00,,2013-05-10 05:49:00,
2013-05-10 00:54:00,62.4,54.0,-100.00,West,265,0.0,0.0,76,0.00,,,0.00,,2013-05-10 05:54:00,
2013-05-10 01:00:00,62.3,54.0,-100.00,West,265,0.0,0.0,77,0.00,,,0.00,,2013-05-10 06:00:00,
2013-05-10 01:04:00,62.5,54.0,-100.00,West,265,0.0,0.0,76,0.00,,,0.00,,2013-05-10 06:04:00,
2013-05-10 01:09:00,62.8,55.0,-100.00,West,265,0.0,0.0,77,0.00,,,0.00,,2013-05-10 06:09:00,
2013-05-10 01:14:00,64.1,54.0,-100.00,West,265,0.0,0.0,72,0.00,,,0.00,,2013-05-10 06:14:00,
2013-05-10 01:19:00,64.3,54.0,-100.00,West,265,0.0,0.0,71,0.00,,,0.00,,2013-05-10 06:19:00,
2013-05-10 01:24:00,64.3,56.0,-100.00,West,265,0.0,0.0,75,0.00,,,0.00,,2013-05-10 06:24:00,
2013-05-10 01:29:00,64.4,55.0,-100.00,West,265,0.0,0.0,73,0.00,,,0.00,,2013-05-10 06:29:00,
2013-05-10 01:34:00,64.5,54.0,-100.00,West,265,0.0,1.0,70,0.00,,,0.00,,2013-05-10 06:34:00,
2013-05-10 01:39:00,64.5,52.0,-100.00,West,265,0.0,1.0,65,0.00,,,0.00,,2013-05-10 06:39:00,
2013-05-10 01:45:00,64.6,49.0,-100.00,West,265,0.0,1.0,58,0.00,,,0.00,,2013-05-10 06:45:00,
2013-05-10 01:49:00,64.6,49.0,-100.00,West,265,0.0,1.0,57,0.00,,,0.00,,2013-05-10 06:49:00,
2013-05-10 01:54:00,64.7,44.0,-100.00,West,265,0.0,0.0,47,0.00,,,0.00,,2013-05-10 06:54:00,
2013-05-10 01:59:00,64.7,50.0,-100.00,West,265,0.0,0.0,60,0.00,,,0.00,,2013-05-10 06:59:00,
2013-05-10 02:04:00,64.7,51.0,-100.00,West,265,0.0,0.0,63,0.00,,,0.00,,2013-05-10 07:04:00,
2013-05-10 02:09:00,64.7,47.0,-100.00,West,265,0.0,0.0,54,0.00,,,0.00,,2013-05-10 07:09:00,
2013-05-10 02:14:00,64.7,46.0,-100.00,West,265,0.0,0.0,51,0.00,,,0.00,,2013-05-10 07:14:00,
2013-05-10 02:19:00,64.7,47.0,-100.00,West,265,0.0,0.0,54,0.00,,,0.00,,2013-05-10 07:19:00,
2013-05-10 02:24:00,64.7,46.0,-100.00,West,265,0.0,0.0,51,0.00,,,0.00,,2013-05-10 07:24:00,
2013-05-10 02:30:00,64.7,46.0,-100.00,West,265,0.0,0.0,52,0.00,,,0.00,,2013-05-10 07:30:00,
2013-05-10 02:34:00,64.7,45.0,-100.00,West,265,0.0,1.0,50,0.00,,,0.00,,2013-05-10 07:34:00,
2013-05-10 02:39:00,64.6,44.0,-100.00,West,265,0.0,1.0,48,0.00,,,0.00,,2013-05-10 07:39:00,
2013-05-10 02:44:00,64.6,43.0,-100.00,West,265,0.0,0.0,46,0.00,,,0.00,,2013-05-10 07:44:00,
2013-05-10 02:49:00,64.6,45.0,-100.00,West,265,0.0,0.0,49,0.00,,,0.00,,2013-05-10 07:49:00,
2013-05-10 02:54:00,64.6,45.0,-100.00,West,265,0.0,0.0,50,0.00,,,0.00,,2013-05-10 07:54:00,
2013-05-10 02:59:00,64.6,45.0,-100.00,West,265,0.0,0.0,49,0.00,,,0.00,,2013-05-10 07:59:00,
2013-05-10 03:04:00,64.6,45.0,-100.00,West,265,0.0,0.0,49,0.00,,,0.00,,2013-05-10 08:04:00,
2013-05-10 03:09:00,64.6,45.0,-100.00,West,265,0.0,0.0,49,0.00,,,0.00,,2013-05-10 08:09:00,
2013-05-10 03:14:00,64.6,43.0,-100.00,West,265,0.0,0.0,46,0.00,,,0.00,,2013-05-10 08:14:00,
2013-05-10 03:19:00,64.5,43.0,-100.00,West,265,0.0,0.0,47,0.00,,,0.00,,2013-05-10 08:19:00,
2013-05-10 03:24:00,64.5,42.0,-100.00,West,265,0.0,0.0,44,0.00,,,0.00,,2013-05-10 08:24:00,
2013-05-10 03:29:00,64.5,44.0,-100.00,West,265,0.0,0.0,49,0.00,,,0.00,,2013-05-10 08:29:00,
2013-05-10 03:34:00,64.5,44.0,-100.00,West,265,0.0,0.0,48,0.00,,,0.00,,2013-05-10 08:34:00,
2013-05-10 03:39:00,64.5,44.0,-100.00,West,265,0.0,0.0,49,0.00,,,0.00,,2013-05-10 08:39:00,
2013-05-10 03:44:00,64.5,45.0,-100.00,West,265,0.0,0.0,50,0.00,,,0.00,,2013-05-10 08:44:00,
2013-05-10 03:49:00,64.5,47.0,-100.00,West,265,0.0,0.0,54,0.00,,,0.00,,2013-05-10 08:49:00,
2013-05-10 03:54:00,64.5,48.0,-100.00,West,265,0.0,0.0,56,0.00,,,0.00,,2013-05-10 08:54:00,
2013-05-10 03:59:00,64.5,47.0,-100.00,West,265,0.0,0.0,54,0.00,,,0.00,,2013-05-10 08:59:00,
2013-05-10 04:04:00,64.5,48.0,-100.00,West,265,0.0,0.0,57,0.00,,,0.00,,2013-05-10 09:04:00,
2013-05-10 04:10:00,64.5,47.0,-100.00,West,265,0.0,0.0,54,0.00,,,0.00,,2013-05-10 09:10:00,
2013-05-10 04:19:00,64.5,50.0,-100.00,West,265,0.0,0.0,61,0.00,,,0.00,,2013-05-10 09:19:00,
2013-05-10 04:24:00,64.5,49.0,-100.00,West,265,0.0,0.0,59,0.00,,,0.00,,2013-05-10 09:24:00,
2013-05-10 04:29:00,64.5,50.0,-100.00,West,265,0.0,0.0,60,0.00,,,0.00,,2013-05-10 09:29:00,
2013-05-10 04:34:00,64.4,51.0,-100.00,West,265,0.0,0.0,63,0.00,,,0.00,,2013-05-10 09:34:00,
2013-05-10 04:39:00,64.5,46.0,-100.00,West,265,0.0,0.0,53,0.00,,,0.00,,2013-05-10 09:39:00,
2013-05-10 04:44:00,64.5,52.0,-100.00,West,265,0.0,0.0,64,0.00,,,0.00,,2013-05-10 09:44:00,
2013-05-10 04:49:00,64.4,52.0,-100.00,West,265,0.0,0.0,65,0.00,,,0.00,,2013-05-10 09:49:00,
2013-05-10 04:54:00,64.3,51.0,-100.00,West,265,0.0,0.0,64,0.00,,,0.00,,2013-05-10 09:54:00,
2013-05-10 04:59:00,64.3,52.0,-100.00,West,265,0.0,0.0,65,0.00,,,0.00,,2013-05-10 09:59:00,
2013-05-10 05:04:00,64.4,52.0,-100.00,West,265,0.0,0.0,65,0.00,,,0.00,,2013-05-10 10:04:00,
2013-05-10 05:09:00,64.4,52.0,-100.00,West,265,0.0,0.0,66,0.00,,,0.00,,2013-05-10 10:09:00,
2013-05-10 05:14:00,64.4,52.0,-100.00,West,265,0.0,0.0,65,0.00,,,0.00,,2013-05-10 10:14:00,
2013-05-10 05:19:00,64.3,53.0,-100.00,West,265,0.0,0.0,67,0.00,,,0.00,,2013-05-10 10:19:00,
2013-05-10 05:24:00,64.3,53.0,-100.00,West,265,0.0,1.0,68,0.00,,,0.00,,2013-05-10 10:24:00,
2013-05-10 05:29:00,64.3,52.0,-100.00,West,265,0.0,1.0,65,0.00,,,0.00,,2013-05-10 10:29:00,
2013-05-10 05:34:00,64.2,50.0,-100.00,West,265,0.0,1.0,62,0.00,,,0.00,,2013-05-10 10:34:00,
2013-05-10 05:39:00,64.2,50.0,-100.00,West,265,0.0,0.0,62,0.00,,,0.00,,2013-05-10 10:39:00,
2013-05-10 05:44:00,64.2,50.0,-100.00,West,265,0.0,1.0,60,0.00,,,0.00,,2013-05-10 10:44:00,
2013-05-10 05:49:00,64.1,50.0,-100.00,West,265,0.0,1.0,62,0.00,,,0.00,,2013-05-10 10:49:00,
2013-05-10 05:59:00,64.1,48.0,-100.00,West,265,0.0,0.0,57,0.00,,,0.00,,2013-05-10 10:59:00,
2013-05-10 06:04:00,64.1,49.0,-100.00,West,265,0.0,0.0,58,0.00,,,0.00,,2013-05-10 11:04:00,
2013-05-10 06:09:00,64.1,49.0,-100.00,West,265,0.0,0.0,59,0.00,,,0.00,,2013-05-10 11:09:00,
2013-05-10 06:14:00,64.0,49.0,-100.00,SW,226,0.0,0.0,59,0.00,,,0.00,,2013-05-10 11:14:00,
2013-05-10 06:19:00,64.1,48.0,-100.00,WSW,243,0.0,0.0,57,0.00,,,0.00,,2013-05-10 11:19:00,
2013-05-10 06:24:00,64.1,48.0,-100.00,WSW,243,0.0,0.0,57,0.00,,,0.00,,2013-05-10 11:24:00,
2013-05-10 06:29:00,64.2,48.0,-100.00,WSW,243,0.0,0.0,56,0.00,,,0.00,,2013-05-10 11:29:00,
2013-05-10 06:34:00,64.2,48.0,-100.00,WSW,243,0.0,1.0,57,0.00,,,0.00,,2013-05-10 11:34:00,
2013-05-10 06:39:00,64.2,49.0,-100.00,WSW,243,0.0,1.0,58,0.00,,,0.00,,2013-05-10 11:39:00,
2013-05-10 06:45:00,64.2,47.0,-100.00,WSW,243,0.0,0.0,54,0.00,,,0.00,,2013-05-10 11:45:00,
2013-05-10 06:54:00,64.3,48.0,-100.00,WSW,243,0.0,0.0,57,0.00,,,0.00,,2013-05-10 11:54:00,
2013-05-10 06:59:00,64.3,47.0,-100.00,WSW,243,0.0,0.0,55,0.00,,,0.00,,2013-05-10 11:59:00,
2013-05-10 07:04:00,64.3,47.0,-100.00,WSW,243,0.0,0.0,55,0.00,,,0.00,,2013-05-10 12:04:00,
2013-05-10 07:10:00,64.4,47.0,-100.00,WSW,243,0.0,0.0,54,0.00,,,0.00,,2013-05-10 12:10:00,
2013-05-10 07:15:00,64.4,46.0,-100.00,SW,220,0.0,0.0,53,0.00,,,0.00,,2013-05-10 12:15:00,
2013-05-10 07:24:00,64.5,47.0,-100.00,WSW,243,0.0,0.0,55,0.00,,,0.00,,2013-05-10 12:24:00,
2013-05-10 07:29:00,64.5,47.0,-100.00,WSW,243,0.0,0.0,54,0.00,,,0.00,,2013-05-10 12:29:00,
2013-05-10 07:34:00,64.5,46.0,-100.00,WSW,243,0.0,0.0,53,0.00,,,0.00,,2013-05-10 12:34:00,
2013-05-10 07:39:00,64.5,46.0,-100.00,WSW,243,0.0,0.0,53,0.00,,,0.00,,2013-05-10 12:39:00,
2013-05-10 07:44:00,64.5,46.0,-100.00,WSW,243,0.0,0.0,52,0.00,,,0.00,,2013-05-10 12:44:00,
2013-05-10 07:49:00,64.5,46.0,-100.00,SW,220,0.0,1.0,52,0.00,,,0.00,,2013-05-10 12:49:00,
2013-05-10 07:55:00,64.5,45.0,-100.00,SW,220,0.0,1.0,51,0.00,,,0.00,,2013-05-10 12:55:00,
2013-05-10 08:04:00,64.5,44.0,-100.00,WSW,243,0.0,0.0,48,0.00,,,0.00,,2013-05-10 13:04:00,
2013-05-10 08:10:00,64.5,44.0,-100.00,SW,234,0.0,1.0,49,0.00,,,0.00,,2013-05-10 13:10:00,
2013-05-10 08:20:00,64.5,43.0,-100.00,SW,220,0.0,1.0,46,0.00,,,0.00,,2013-05-10 13:20:00,
2013-05-10 08:30:00,64.5,42.0,-100.00,WSW,243,0.0,1.0,44,0.00,,,0.00,,2013-05-10 13:30:00,
2013-05-10 08:40:00,64.6,41.0,-100.00,WSW,243,0.0,0.0,43,0.00,,,0.00,,2013-05-10 13:40:00,
2013-05-10 08:50:00,64.6,43.0,-100.00,WSW,243,0.0,0.0,46,0.00,,,0.00,,2013-05-10 13:50:00,
2013-05-10 08:59:00,64.6,42.0,-100.00,WSW,243,0.0,0.0,45,0.03,,,0.03,,2013-05-10 13:59:00,
2013-05-10 09:04:00,64.6,42.0,-100.00,WSW,243,0.0,1.0,45,0.03,,,0.03,,2013-05-10 14:04:00,
2013-05-10 09:09:00,64.8,42.0,-100.00,WSW,243,0.0,1.0,45,0.03,,,0.03,,2013-05-10 14:09:00,
2013-05-10 09:15:00,64.8,45.0,-100.00,WSW,243,0.0,0.0,49,0.03,,,0.03,,2013-05-10 14:15:00,
2013-05-10 09:24:00,66.1,47.0,-100.00,West,260,0.0,1.0,52,0.03,,,0.03,,2013-05-10 14:24:00,
2013-05-10 09:29:00,66.7,49.0,-100.00,West,265,0.0,0.0,53,0.03,,,0.03,,2013-05-10 14:29:00,
2013-05-10 09:34:00,67.0,54.0,-100.00,West,265,0.0,1.0,65,0.03,,,0.03,,2013-05-10 14:34:00,
2013-05-10 09:39:00,67.5,60.0,-100.00,West,265,0.0,1.0,77,0.03,,,0.03,,2013-05-10 14:39:00,
2013-05-10 09:44:00,67.8,65.0,-100.00,West,265,0.0,1.0,91,0.03,,,0.03,,2013-05-10 14:44:00,
2013-05-10 09:50:00,67.4,64.0,-100.00,West,265,0.0,1.0,92,0.03,,,0.03,,2013-05-10 14:50:00,
2013-05-10 09:55:00,67.3,65.0,-100.00,West,265,0.0,0.0,95,0.00,,,0.03,,2013-05-10 14:55:00,
2013-05-10 10:05:00,69.5,69.0,-100.00,West,265,0.0,1.0,100,0.00,,,0.03,,2013-05-10 15:05:00,
2013-05-10 10:10:00,69.8,69.0,-100.00,West,265,0.0,1.0,100,0.00,,,0.03,,2013-05-10 15:10:00,
2013-05-10 10:19:00,71.3,71.0,-100.00,West,265,0.0,0.0,100,0.00,,,0.03,,2013-05-10 15:19:00,
2013-05-10 10:24:00,73.0,72.0,-100.00,West,265,0.0,1.0,97,0.00,,,0.03,,2013-05-10 15:24:00,
2013-05-10 10:29:00,73.5,72.0,-100.00,West,265,0.0,1.0,98,0.00,,,0.03,,2013-05-10 15:29:00,
2013-05-10 10:34:00,75.0,72.0,-100.00,West,279,0.0,1.0,96,0.00,,,0.03,,2013-05-10 15:34:00,
2013-05-10 10:39:00,75.0,72.0,-100.00,NNW,333,0.0,1.0,91,0.00,,,0.03,,2013-05-10 15:39:00,
2013-05-10 10:44:00,75.6,72.0,-100.00,NNW,333,0.0,1.0,90,0.00,,,0.03,,2013-05-10 15:44:00,
2013-05-10 10:49:00,75.5,72.0,-100.00,NNW,333,0.0,1.0,89,0.00,,,0.03,,2013-05-10 15:49:00,
2013-05-10 10:54:00,76.1,72.0,-100.00,NNW,333,0.0,1.0,88,0.00,,,0.03,,2013-05-10 15:54:00,
2013-05-10 10:59:00,76.0,70.0,-100.00,NNW,333,0.0,1.0,82,0.00,,,0.03,,2013-05-10 15:59:00,
2013-05-10 11:04:00,75.2,55.0,-100.00,West,265,0.0,1.0,50,0.00,,,0.03,,2013-05-10 16:04:00,
2013-05-10 11:09:00,75.5,70.0,-100.00,WNW,290,0.0,1.0,84,0.00,,,0.03,,2013-05-10 16:09:00,
2013-05-10 11:15:00,75.6,31.0,-100.00,West,265,0.0,1.0,20,0.00,,,0.03,,2013-05-10 16:15:00,
2013-05-10 11:20:00,76.3,68.0,-100.00,WSW,254,0.0,1.0,77,0.00,,,0.03,,2013-05-10 16:20:00,
2013-05-10 11:25:00,76.4,29.0,-100.00,SSW,209,0.0,1.0,18,0.00,,,0.03,,2013-05-10 16:25:00,
2013-05-10 11:35:00,76.8,40.0,-100.00,West,279,0.0,1.0,27,0.00,,,0.03,,2013-05-10 16:35:00,
2013-05-10 11:45:00,78.3,26.0,-100.00,West,265,0.0,1.0,15,0.00,,,0.03,,2013-05-10 16:45:00,
2013-05-10 11:50:00,78.3,28.0,-100.00,West,265,0.0,1.0,16,0.00,,,0.03,,2013-05-10 16:50:00,
2013-05-10 11:59:00,78.5,25.0,-100.00,West,268,0.0,1.0,14,0.00,,,0.03,,2013-05-10 16:59:00,
2013-05-10 12:04:00,78.5,25.0,-100.00,NW,310,0.0,1.0,14,0.00,,,0.03,,2013-05-10 17:04:00,
2013-05-10 12:10:00,78.1,25.0,-100.00,West,262,0.0,1.0,14,0.00,,,0.03,,2013-05-10 17:10:00,
2013-05-10 12:20:00,80.1,22.0,-100.00,West,265,0.0,1.0,12,0.00,,,0.03,,2013-05-10 17:20:00,
2013-05-10 12:29:00,78.6,21.0,-100.00,West,265,0.0,1.0,12,0.00,,,0.03,,2013-05-10 17:29:00,
2013-05-10 12:39:00,80.9,21.0,-100.00,West,265,0.0,1.0,11,0.00,,,0.03,,2013-05-10 17:39:00,
2013-05-10 12:44:00,82.6,15.0,-100.00,West,268,0.0,1.0,8,0.00,,,0.03,,2013-05-10 17:44:00,
2013-05-10 12:50:00,82.5,15.0,-100.00,West,271,0.0,1.0,8,0.00,,,0.03,,2013-05-10 17:50:00,
2013-05-10 13:00:00,82.6,18.0,-100.00,SSW,209,0.0,1.0,9,0.00,,,0.03,,2013-05-10 18:00:00,
2013-05-10 13:09:00,80.8,14.0,-100.00,West,262,0.0,1.0,8,0.00,,,0.03,,2013-05-10 18:09:00,
2013-05-10 13:14:00,80.3,18.0,-100.00,WSW,254,0.0,1.0,10,0.00,,,0.03,,2013-05-10 18:14:00,
2013-05-10 13:20:00,80.8,16.0,-100.00,West,274,0.0,1.0,9,0.00,,,0.03,,2013-05-10 18:20:00,
2013-05-10 13:29:00,82.1,17.0,-100.00,West,260,0.0,1.0,9,0.00,,,0.03,,2013-05-10 18:29:00,
2013-05-10 13:34:00,82.1,15.0,-100.00,West,271,0.0,1.0,8,0.00,,,0.03,,2013-05-10 18:34:00,
2013-05-10 13:39:00,80.1,18.0,-100.00,West,271,0.0,1.0,10,0.00,,,0.03,,2013-05-10 18:39:00,
2013-05-10 13:44:00,78.3,19.0,-100.00,West,262,0.0,1.0,11,0.00,,,0.03,,2013-05-10 18:44:00,
2013-05-10 13:49:00,78.5,19.0,-100.00,West,265,0.0,1.0,11,0.00,,,0.03,,2013-05-10 18:49:00,
2013-05-10 13:54:00,78.6,17.0,-100.00,WNW,288,0.0,1.0,10,0.00,,,0.03,,2013-05-10 18:54:00,
2013-05-10 13:59:00,78.7,17.0,-100.00,West,265,0.0,1.0,10,0.00,,,0.03,,2013-05-10 18:59:00,
2013-05-10 14:04:00,78.9,17.0,-100.00,West,268,0.0,1.0,10,0.00,,,0.03,,2013-05-10 19:04:00,
2013-05-10 14:10:00,80.3,18.0,-100.00,WSW,246,0.0,1.0,10,0.00,,,0.03,,2013-05-10 19:10:00,
2013-05-10 14:19:00,78.1,21.0,-100.00,West,265,0.0,1.0,12,0.00,,,0.03,,2013-05-10 19:19:00,
2013-05-10 14:25:00,78.3,21.0,-100.00,West,262,0.0,1.0,12,0.00,,,0.03,,2013-05-10 19:25:00,
2013-05-10 14:34:00,82.0,17.0,-100.00,West,262,0.0,1.0,9,0.00,,,0.03,,2013-05-10 19:34:00,
2013-05-10 14:39:00,82.1,14.0,-100.00,West,268,0.0,1.0,8,0.00,,,0.03,,2013-05-10 19:39:00,
2013-05-10 14:44:00,82.5,15.0,-100.00,West,265,0.0,1.0,8,0.00,,,0.03,,2013-05-10 19:44:00,
2013-05-10 14:49:00,82.8,9.0,-100.00,SW,226,0.0,1.0,6,0.00,,,0.03,,2013-05-10 19:49:00,
2013-05-10 14:55:00,82.7,8.0,-100.00,West,265,0.0,1.0,6,0.00,,,0.03,,2013-05-10 19:55:00,
2013-05-10 15:04:00,80.9,14.0,-100.00,WNW,299,0.0,1.0,8,0.00,,,0.03,,2013-05-10 20:04:00,
2013-05-10 15:09:00,80.6,13.0,-100.00,West,265,0.0,1.0,8,0.00,,,0.03,,2013-05-10 20:09:00,
2013-05-10 15:14:00,80.7,13.0,-100.00,West,265,0.0,1.0,8,0.00,,,0.03,,2013-05-10 20:14:00,
2013-05-10 15:19:00,80.0,16.0,-100.00,SW,214,0.0,1.0,9,0.00,,,0.03,,2013-05-10 20:19:00,
2013-05-10 15:24:00,80.0,18.0,-100.00,West,265,0.0,1.0,10,0.00,,,0.03,,2013-05-10 20:24:00,
2013-05-10 15:29:00,80.7,16.0,-100.00,SW,234,0.0,1.0,9,0.00,,,0.03,,2013-05-10 20:29:00,
2013-05-10 15:34:00,82.5,12.0,-100.00,West,277,0.0,1.0,7,0.00,,,0.03,,2013-05-10 20:34:00,
2013-05-10 15:39:00,80.5,13.0,-100.00,SSW,206,0.0,1.0,8,0.00,,,0.03,,2013-05-10 20:39:00,
2013-05-10 15:44:00,80.6,13.0,-100.00,West,265,0.0,1.0,8,0.00,,,0.03,,2013-05-10 20:44:00,
2013-05-10 15:49:00,80.3,13.0,-100.00,West,259,0.0,0.0,8,0.00,,,0.03,,2013-05-10 20:49:00,
2013-05-10 15:54:00,78.9,16.0,-100.00,West,265,0.0,0.0,9,0.00,,,0.03,,2013-05-10 20:54:00,
2013-05-10 15:59:00,78.1,19.0,-100.00,West,265,0.0,0.0,11,0.00,,,0.03,,2013-05-10 20:59:00,
2013-05-10 16:04:00,78.1,19.0,-100.00,West,265,0.0,1.0,11,0.00,,,0.03,,2013-05-10 21:04:00,
2013-05-10 16:09:00,78.4,19.0,-100.00,West,265,0.0,1.0,11,0.00,,,0.03,,2013-05-10 21:09:00,
2013-05-10 16:14:00,78.5,19.0,-100.00,WNW,288,0.0,1.0,11,0.00,,,0.03,,2013-05-10 21:14:00,
2013-05-10 16:19:00,78.9,17.0,-100.00,West,277,0.0,1.0,10,0.00,,,0.03,,2013-05-10 21:19:00,
2013-05-10 16:24:00,78.9,17.0,-100.00,West,260,0.0,1.0,10,0.00,,,0.03,,2013-05-10 21:24:00,
2013-05-10 16:29:00,80.1,16.0,-100.00,West,259,0.0,1.0,9,0.00,,,0.03,,2013-05-10 21:29:00,
2013-05-10 16:34:00,80.4,16.0,-100.00,West,265,0.0,1.0,9,0.00,,,0.03,,2013-05-10 21:34:00,
2013-05-10 16:40:00,80.5,16.0,-100.00,South,184,0.0,1.0,9,0.00,,,0.03,,2013-05-10 21:40:00,
2013-05-10 16:49:00,78.5,19.0,-100.00,WSW,254,0.0,1.0,11,0.00,,,0.03,,2013-05-10 21:49:00,
2013-05-10 16:54:00,78.3,19.0,-100.00,WSW,254,0.0,1.0,11,0.00,,,0.03,,2013-05-10 21:54:00,
2013-05-10 16:59:00,78.6,19.0,-100.00,West,265,0.0,1.0,11,0.00,,,0.03,,2013-05-10 21:59:00,
2013-05-10 17:04:00,78.8,19.0,-100.00,West,262,0.0,1.0,11,0.00,,,0.03,,2013-05-10 22:04:00,
2013-05-10 17:09:00,82.0,17.0,-100.00,WNW,291,0.0,1.0,9,0.00,,,0.03,,2013-05-10 22:09:00,
2013-05-10 17:15:00,80.5,16.0,-100.00,SW,220,0.0,1.0,9,0.00,,,0.03,,2013-05-10 22:15:00,
2013-05-10 17:24:00,78.3,17.0,-100.00,West,262,0.0,1.0,10,0.00,,,0.03,,2013-05-10 22:24:00,
2013-05-10 17:29:00,76.8,18.0,-100.00,SSW,206,0.0,1.0,11,0.00,,,0.03,,2013-05-10 22:29:00,
2013-05-10 17:34:00,76.8,18.0,-100.00,West,265,0.0,1.0,11,0.00,,,0.03,,2013-05-10 22:34:00,
2013-05-10 17:39:00,76.4,21.0,-100.00,SW,215,0.0,1.0,13,0.00,,,0.03,,2013-05-10 22:39:00,
2013-05-10 17:44:00,76.0,23.0,-100.00,West,262,0.0,1.0,14,0.00,,,0.03,,2013-05-10 22:44:00,
2013-05-10 17:49:00,75.9,23.0,-100.00,West,265,0.0,1.0,14,0.00,,,0.03,,2013-05-10 22:49:00,
2013-05-10 17:54:00,75.7,23.0,-100.00,WSW,248,0.0,1.0,14,0.00,,,0.03,,2013-05-10 22:54:00,
2013-05-10 17:59:00,75.6,24.0,-100.00,West,268,0.0,1.0,15,0.00,,,0.03,,2013-05-10 22:59:00,
2013-05-10 18:04:00,75.5,26.0,-100.00,WSW,245,0.0,1.0,16,0.00,,,0.03,,2013-05-10 23:04:00,
2013-05-10 18:10:00,75.3,26.0,-100.00,West,265,0.0,1.0,16,0.00,,,0.03,,2013-05-10 23:10:00,
2013-05-10 18:19:00,73.3,29.0,-100.00,West,265,0.0,1.0,20,0.00,,,0.03,,2013-05-10 23:19:00,
2013-05-10 18:24:00,71.6,31.0,-100.00,West,265,0.0,1.0,23,0.00,,,0.03,,2013-05-10 23:24:00,
2013-05-10 18:29:00,71.0,33.0,-100.00,West,265,0.0,1.0,25,0.00,,,0.03,,2013-05-10 23:29:00,
2013-05-10 18:34:00,69.6,34.0,-100.00,West,265,0.0,0.0,27,0.00,,,0.03,,2013-05-10 23:34:00,
2013-05-10 18:39:00,69.3,69.0,-100.00,West,265,0.0,0.0,100,0.00,,,0.06,,2013-05-10 23:39:00,
2013-05-10 18:44:00,69.1,69.0,-100.00,West,265,0.0,0.0,100,0.03,,,0.06,,2013-05-10 23:44:00,
2013-05-10 18:50:00,69.0,68.0,-100.00,West,265,0.0,0.0,97,0.03,,,0.06,,2013-05-10 23:50:00,
2013-05-10 19:05:00,67.7,67.0,-100.00,West,265,0.0,0.0,100,0.03,,,0.09,,2013-05-11 00:05:00,
2013-05-10 19:15:00,67.6,67.0,-100.00,West,265,0.0,0.0,100,0.06,,,0.09,,2013-05-11 00:15:00,
2013-05-10 19:20:00,67.5,67.0,-100.00,West,265,0.0,0.0,100,0.06,,,0.09,,2013-05-11 00:20:00,
2013-05-10 19:25:00,67.4,67.0,-100.00,West,265,0.0,0.0,100,0.06,,,0.09,,2013-05-11 00:25:00,
2013-05-10 19:30:00,67.3,67.0,-100.00,West,265,0.0,0.0,100,0.06,,,0.09,,2013-05-11 00:30:00,
2013-05-10 19:35:00,67.3,67.0,-100.00,West,265,0.0,0.0,100,0.09,,,0.12,,2013-05-11 00:35:00,
2013-05-10 19:40:00,67.3,67.0,-100.00,West,265,0.0,0.0,100,0.12,,,0.15,,2013-05-11 00:40:00,
2013-05-10 19:45:00,67.3,67.0,-100.00,West,265,0.0,0.0,100,0.09,,,0.15,,2013-05-11 00:45:00,
2013-05-10 19:50:00,67.1,67.0,-100.00,West,265,0.0,0.0,100,0.09,,,0.15,,2013-05-11 00:50:00,
2013-05-10 19:55:00,67.0,67.0,-100.00,West,265,0.0,0.0,100,0.12,,,0.19,,2013-05-11 00:55:00,
2013-05-10 20:00:00,66.9,66.0,-100.00,West,265,0.0,0.0,99,0.16,,,0.22,,2013-05-11 01:00:00,
2013-05-10 20:05:00,66.8,66.0,-100.00,West,265,0.0,0.0,99,0.16,,,0.22,,2013-05-11 01:05:00,
2013-05-10 20:10:00,66.8,66.0,-100.00,West,265,0.0,0.0,99,0.12,,,0.22,,2013-05-11 01:10:00,
2013-05-10 20:15:00,66.8,66.0,-100.00,West,265,0.0,0.0,98,0.16,,,0.25,,2013-05-11 01:15:00,
2013-05-10 20:20:00,66.8,66.0,-100.00,West,265,0.0,0.0,98,0.19,,,0.28,,2013-05-11 01:20:00,
2013-05-10 20:25:00,66.7,66.0,-100.00,WSW,240,0.0,1.0,98,0.19,,,0.28,,2013-05-11 01:25:00,
2013-05-10 20:30:00,66.7,65.0,-100.00,SW,220,0.0,1.0,97,0.19,,,0.28,,2013-05-11 01:30:00,
2013-05-10 20:35:00,66.6,65.0,-100.00,SW,220,0.0,0.0,95,0.16,,,0.28,,2013-05-11 01:35:00,
2013-05-10 20:39:00,66.5,64.0,-100.00,SW,220,0.0,1.0,94,0.12,,,0.28,,2013-05-11 01:39:00,
2013-05-10 20:45:00,66.4,64.0,-100.00,SW,220,0.0,1.0,93,0.12,,,0.28,,2013-05-11 01:45:00,
2013-05-10 20:50:00,66.3,64.0,-100.00,SW,220,0.0,0.0,93,0.12,,,0.28,,2013-05-11 01:50:00,
2013-05-10 20:55:00,66.3,63.0,-100.00,SW,220,0.0,0.0,92,0.09,,,0.28,,2013-05-11 01:55:00,
2013-05-10 21:00:00,66.3,63.0,-100.00,SW,220,0.0,1.0,92,0.09,,,0.31,,2013-05-11 02:00:00,
2013-05-10 21:05:00,66.2,64.0,-100.00,SW,220,0.0,1.0,93,0.09,,,0.31,,2013-05-11 02:05:00,
2013-05-10 21:10:00,66.1,64.0,-100.00,SW,220,0.0,0.0,94,0.09,,,0.31,,2013-05-11 02:10:00,
2013-05-10 21:15:00,66.1,64.0,-100.00,SW,220,0.0,0.0,95,0.06,,,0.31,,2013-05-11 02:15:00,
2013-05-10 21:20:00,64.9,62.0,-100.00,WSW,243,0.0,1.0,91,0.03,,,0.31,,2013-05-11 02:20:00,
2013-05-10 21:30:00,64.6,61.0,-100.00,WSW,243,0.0,1.0,91,0.03,,,0.31,,2013-05-11 02:30:00,
2013-05-10 21:35:00,64.5,61.0,-100.00,WSW,243,0.0,0.0,91,0.03,,,0.31,,2013-05-11 02:35:00,
2013-05-10 21:40:00,64.4,61.0,-100.00,WSW,243,0.0,1.0,90,0.03,,,0.31,,2013-05-11 02:40:00,
2013-05-10 21:44:00,64.4,61.0,-100.00,WSW,243,0.0,1.0,90,0.03,,,0.31,,2013-05-11 02:44:00,
2013-05-10 21:50:00,64.2,61.0,-100.00,WSW,243,0.0,0.0,91,0.03,,,0.31,,2013-05-11 02:50:00,
2013-05-10 21:55:00,64.0,61.0,-100.00,WSW,243,0.0,0.0,91,0.03,,,0.31,,2013-05-11 02:55:00,
2013-05-10 22:00:00,62.6,60.0,-100.00,WSW,243,0.0,0.0,93,0.00,,,0.31,,2013-05-11 03:00:00,
2013-05-10 22:04:00,62.5,60.0,-100.00,WSW,243,0.0,0.0,94,0.00,,,0.31,,2013-05-11 03:04:00,
2013-05-10 22:09:00,62.2,60.0,-100.00,WSW,243,0.0,0.0,95,0.00,,,0.31,,2013-05-11 03:09:00,
2013-05-10 22:15:00,62.0,61.0,-100.00,WSW,243,0.0,0.0,97,0.00,,,0.31,,2013-05-11 03:15:00,
2013-05-10 22:20:00,60.9,60.0,-100.00,WSW,243,0.0,0.0,98,0.00,,,0.31,,2013-05-11 03:20:00,
2013-05-10 22:24:00,62.0,61.0,-100.00,WSW,243,0.0,0.0,98,0.00,,,0.31,,2013-05-11 03:24:00,
2013-05-10 22:29:00,60.9,60.0,-100.00,WSW,243,0.0,0.0,98,0.00,,,0.31,,2013-05-11 03:29:00,
2013-05-10 22:35:00,60.8,60.0,-100.00,WSW,243,0.0,1.0,98,0.00,,,0.31,,2013-05-11 03:35:00,
2013-05-10 22:40:00,60.8,60.0,-100.00,WSW,243,0.0,1.0,99,0.00,,,0.31,,2013-05-11 03:40:00,
2013-05-10 22:45:00,60.9,60.0,-100.00,WSW,243,0.0,0.0,98,0.00,,,0.31,,2013-05-11 03:45:00,
2013-05-10 22:49:00,60.9,60.0,-100.00,WSW,243,0.0,0.0,99,0.00,,,0.31,,2013-05-11 03:49:00,
2013-05-10 22:54:00,60.7,60.0,-100.00,WSW,243,0.0,0.0,98,0.00,,,0.31,,2013-05-11 03:54:00,
2013-05-10 23:00:00,60.6,60.0,-100.00,WSW,243,0.0,0.0,99,0.00,,,0.31,,2013-05-11 04:00:00,
2013-05-10 23:05:00,60.7,60.0,-100.00,WSW,243,0.0,0.0,98,0.00,,,0.31,,2013-05-11 04:05:00,
2013-05-10 23:09:00,60.7,60.0,-100.00,WSW,243,0.0,0.0,100,0.00,,,0.31,,2013-05-11 04:09:00,
2013-05-10 23:14:00,60.7,60.0,-100.00,WSW,243,0.0,0.0,99,0.00,,,0.31,,2013-05-11 04:14:00,
2013-05-10 23:19:00,60.6,60.0,-100.00,WSW,243,0.0,0.0,99,0.00,,,0.31,,2013-05-11 04:19:00,
2013-05-10 23:25:00,60.5,60.0,-100.00,WSW,243,0.0,0.0,100,0.00,,,0.31,,2013-05-11 04:25:00,
2013-05-10 23:29:00,60.3,60.0,-100.00,WSW,243,0.0,0.0,100,0.00,,,0.31,,2013-05-11 04:29:00,
2013-05-10 23:34:00,60.3,60.0,-100.00,WSW,243,0.0,0.0,100,0.00,,,0.31,,2013-05-11 04:34:00,
2013-05-10 23:39:00,60.3,60.0,-100.00,WSW,243,0.0,0.0,99,0.00,,,0.31,,2013-05-11 04:39:00,
2013-05-10 23:45:00,60.5,60.0,-100.00,WSW,243,0.0,0.0,100,0.00,,,0.31,,2013-05-11 04:45:00,
2013-05-10 23:49:00,60.4,60.0,-100.00,WSW,243,0.0,0.0,100,0.00,,,0.31,,2013-05-11 04:49:00,
2013-05-10 23:54:00,60.5,60.0,-100.00,WSW,243,0.0,0.0,100,0.00,,,0.31,,2013-05-11 04:54:00,
2013-05-10 23:59:00,60.5,60.0,-100.00,WSW,243,0.0,0.0,100,0.00,,,0.31,,2013-05-11 04:59:00,